createdAt,value
2019-03-24T20:28:36.322Z,5.42
2019-03-24T20:31:04.700Z,5.50
2019-03-24T20:33:33.052Z,5.42
2019-03-24T20:36:01.406Z,5.40
2019-03-24T20:38:29.773Z,5.25
2019-03-24T20:40:58.121Z,5.45
2019-03-24T20:43:26.504Z,4.80
2019-03-24T20:45:54.861Z,5.05
2019-03-24T20:48:23.211Z,5.00
2019-03-24T20:50:51.585Z,5.08
2019-03-24T20:53:19.965Z,5.50
2019-03-24T20:55:48.320Z,5.00
2019-03-24T20:58:16.674Z,5.60
2019-03-24T21:00:45.376Z,5.45
2019-03-24T21:03:13.743Z,5.17
2019-03-24T21:05:42.098Z,5.60
2019-03-24T21:08:10.463Z,4.95
2019-03-24T21:10:38.812Z,5.30
2019-03-24T21:13:07.180Z,5.95
2019-03-24T21:15:37.079Z,5.78
2019-03-24T21:18:05.589Z,5.50
2019-03-24T21:20:33.939Z,5.12
2019-03-24T21:23:02.302Z,6.25
2019-03-24T21:25:30.678Z,5.50
2019-03-24T21:27:59.029Z,5.75
2019-03-24T21:30:32.574Z,5.53
2019-03-24T21:33:01.423Z,6.10
2019-03-24T21:35:29.777Z,5.80
2019-03-24T21:37:58.505Z,6.20
2019-03-24T21:40:26.955Z,5.75
2019-03-24T21:42:55.311Z,5.55
2019-03-24T21:45:23.676Z,6.10
2019-03-24T21:47:52.033Z,5.78
2019-03-24T21:50:20.414Z,5.90
2019-03-24T21:52:48.773Z,5.58
2019-03-24T21:55:17.144Z,6.90
2019-03-24T21:57:56.740Z,6.10
2019-03-24T22:00:18.849Z,5.55
2019-03-24T22:02:47.200Z,6.10
2019-03-24T22:05:15.576Z,6.17
2019-03-24T22:07:43.946Z,6.00
2019-03-24T22:10:12.298Z,6.35
2019-03-24T22:12:40.719Z,6.60
2019-03-24T22:15:09.506Z,7.03
2019-03-24T22:17:37.852Z,6.97
2019-03-24T22:20:07.105Z,7.08
2019-03-24T22:22:35.464Z,7.47
2019-03-24T22:25:04.583Z,7.67
2019-03-24T22:27:32.940Z,6.83
2019-03-24T22:30:01.315Z,6.85
2019-03-24T22:32:29.664Z,6.25
2019-03-24T22:34:58.032Z,6.58
2019-03-24T22:37:26.380Z,6.42
2019-03-24T22:39:54.733Z,6.67
2019-03-24T22:42:23.117Z,6.87
2019-03-24T22:44:51.465Z,6.85
2019-03-24T22:47:19.832Z,7.37
2019-03-24T22:49:48.199Z,7.30
2019-03-24T22:52:16.557Z,7.70
2019-03-24T22:54:44.946Z,7.35
2019-03-24T22:57:13.300Z,8.13
2019-03-24T22:59:41.657Z,8.53
2019-03-24T23:02:10.036Z,8.18
2019-03-24T23:04:38.405Z,8.78
2019-03-24T23:07:06.799Z,9.68
2019-03-24T23:09:35.151Z,9.35
2019-03-24T23:12:03.699Z,9.75
2019-03-24T23:14:32.053Z,9.70
2019-03-24T23:17:00.449Z,8.65
2019-03-24T23:19:28.814Z,9.20
2019-03-24T23:21:57.169Z,9.58
2019-03-24T23:24:25.561Z,10.78
2019-03-24T23:26:53.943Z,10.20
2019-03-24T23:29:22.312Z,10.23
2019-03-24T23:31:50.680Z,9.53
2019-03-24T23:34:19.046Z,9.80
2019-03-24T23:36:47.494Z,9.23
2019-03-24T23:39:15.859Z,9.23
2019-03-24T23:41:44.238Z,8.95
2019-03-24T23:44:12.617Z,9.58
2019-03-24T23:46:40.978Z,9.05
2019-03-24T23:49:09.352Z,9.05
2019-03-24T23:51:37.708Z,10.08
2019-03-24T23:54:06.088Z,9.30
2019-03-24T23:56:34.444Z,10.90
2019-03-24T23:59:02.830Z,10.88
